Time;durP1;ratioP1;P1;durP2;ratioP2;P2;SDS_P1;SDS_P2;PMS_P1;PMS_P2;Temp;Humidity;BMP_temperature;BMP_pressure;BME280_temperature;BME280_humidity;BME280_pressure;Samples;Min_cycle;Max_cycle;Signal;HPM_P1;HPM_P2
2023/09/24 00:01:49;;;;;;;8.65;2.20;;;12.80;99.90;;;;;;5071132;28;20549;-71
2023/09/24 00:04:15;;;;;;;7.18;1.65;;;12.80;99.90;;;;;;5063947;28;20045;-71
2023/09/24 00:06:40;;;;;;;5.63;1.90;;;12.80;99.90;;;;;;5071703;28;20280;-70
2023/09/24 00:09:07;;;;;;;5.22;1.83;;;12.80;99.90;;;;;;5070400;28;20399;-71
2023/09/24 00:11:32;;;;;;;7.50;2.00;;;12.80;99.90;;;;;;5070061;28;20034;-70
2023/09/24 00:13:58;;;;;;;6.22;1.98;;;12.70;99.90;;;;;;5069777;28;20107;-70
2023/09/24 00:16:24;;;;;;;5.57;1.83;;;12.70;99.90;;;;;;5070748;28;20116;-70
2023/09/24 00:18:49;;;;;;;7.72;2.20;;;12.60;99.90;;;;;;5070297;28;20048;-70
2023/09/24 00:21:16;;;;;;;6.97;1.88;;;12.60;99.90;;;;;;5070370;28;20024;-70
2023/09/24 00:23:41;;;;;;;10.15;2.40;;;12.50;99.90;;;;;;5070479;28;20092;-71
2023/09/24 00:26:07;;;;;;;8.68;2.50;;;12.50;99.90;;;;;;5070408;28;20095;-71
2023/09/24 00:28:32;;;;;;;10.95;2.10;;;12.40;99.90;;;;;;5069694;28;20021;-71
2023/09/24 00:30:58;;;;;;;7.22;2.30;;;12.40;99.90;;;;;;5070053;28;20472;-70
2023/09/24 00:33:24;;;;;;;9.57;2.30;;;12.40;99.90;;;;;;5068934;28;20040;-70
2023/09/24 00:35:51;;;;;;;6.55;2.10;;;12.30;99.90;;;;;;5070115;28;20020;-70
2023/09/24 00:38:20;;;;;;;6.45;2.03;;;12.30;99.90;;;;;;5068981;28;20039;-71
2023/09/24 00:40:46;;;;;;;5.57;2.10;;;12.30;99.90;;;;;;5070083;28;20471;-70
2023/09/24 00:43:37;;;;;;;5.75;2.35;;;12.30;99.90;;;;;;5069677;28;20092;-70
2023/09/24 00:46:04;;;;;;;7.18;2.28;;;12.40;99.90;;;;;;5069487;28;20051;-71
2023/09/24 00:48:31;;;;;;;7.50;2.28;;;12.40;99.90;;;;;;5067291;28;20369;-70
2023/09/24 00:51:02;;;;;;;9.23;2.67;;;12.40;99.90;;;;;;5063800;28;20456;-70
2023/09/24 00:53:29;;;;;;;10.95;2.50;;;12.40;99.90;;;;;;5061105;28;20390;-70
2023/09/24 00:55:56;;;;;;;11.32;2.53;;;12.40;99.90;;;;;;5069866;28;20040;-71
2023/09/24 00:58:23;;;;;;;8.63;2.65;;;12.30;99.90;;;;;;5065393;28;20020;-70
2023/09/24 01:00:51;;;;;;;11.93;2.60;;;12.30;99.90;;;;;;5069821;28;20031;-70
2023/09/24 01:03:18;;;;;;;5.57;2.10;;;12.40;99.90;;;;;;5070270;28;20032;-71
2023/09/24 01:05:48;;;;;;;9.07;2.28;;;12.40;99.90;;;;;;5069429;28;20057;-70
2023/09/24 01:08:14;;;;;;;11.02;2.42;;;12.40;99.90;;;;;;5070151;28;20024;-70
2023/09/24 01:10:40;;;;;;;12.00;2.65;;;12.40;99.90;;;;;;5069862;28;20023;-70
2023/09/24 01:13:06;;;;;;;7.72;2.58;;;12.40;99.90;;;;;;5070097;28;20391;-70
2023/09/24 01:15:31;;;;;;;9.73;2.45;;;12.40;99.90;;;;;;5069666;28;20013;-70
2023/09/24 01:17:57;;;;;;;7.38;2.28;;;12.40;99.90;;;;;;5070004;28;20336;-70
2023/09/24 01:20:25;;;;;;;10.18;2.67;;;12.40;99.90;;;;;;5069572;28;20028;-70
2023/09/24 01:22:51;;;;;;;5.82;2.22;;;12.40;99.90;;;;;;5070147;28;20020;-70
2023/09/24 01:25:21;;;;;;;9.95;2.67;;;12.40;99.90;;;;;;5069844;28;20020;-70
2023/09/24 01:27:48;;;;;;;9.13;2.60;;;12.40;99.90;;;;;;5069781;28;20539;-70
2023/09/24 01:30:14;;;;;;;6.72;2.40;;;12.40;99.90;;;;;;5069753;28;20361;-70
2023/09/24 01:32:40;;;;;;;9.43;2.25;;;12.30;99.90;;;;;;5069078;28;20040;-70
2023/09/24 01:35:07;;;;;;;7.40;2.75;;;12.30;99.90;;;;;;5069666;28;20021;-70
2023/09/24 01:37:35;;;;;;;5.80;2.22;;;12.30;99.90;;;;;;5069495;28;20460;-70
2023/09/24 01:40:17;;;;;;;8.88;2.58;;;12.30;99.90;;;;;;5069459;28;20032;-70
2023/09/24 01:42:43;;;;;;;8.57;2.47;;;12.30;99.90;;;;;;5069648;28;20471;-70
2023/09/24 01:45:10;;;;;;;8.85;2.35;;;12.30;99.90;;;;;;5069538;28;20025;-70
2023/09/24 01:47:37;;;;;;;8.30;2.20;;;12.30;99.90;;;;;;5069208;28;20021;-70
2023/09/24 01:50:06;;;;;;;9.73;2.50;;;12.30;99.90;;;;;;5069425;28;20021;-70
2023/09/24 01:52:34;;;;;;;6.72;2.63;;;12.30;99.90;;;;;;5069879;28;20026;-70
2023/09/24 01:55:00;;;;;;;8.40;2.60;;;12.30;99.90;;;;;;5060111;28;20017;-70
2023/09/24 01:57:26;;;;;;;6.50;2.47;;;12.30;99.90;;;;;;5069606;28;20023;-70
2023/09/24 01:59:52;;;;;;;9.30;2.58;;;12.20;99.90;;;;;;5071509;28;20414;-70
2023/09/24 02:02:18;;;;;;;10.38;2.92;;;12.20;99.90;;;;;;5073066;28;20099;-70
2023/09/24 02:04:43;;;;;;;9.13;2.45;;;12.20;99.90;;;;;;5073105;28;20048;-71
2023/09/24 02:07:11;;;;;;;7.30;2.38;;;12.20;99.90;;;;;;5072841;28;20024;-70
2023/09/24 02:09:37;;;;;;;7.03;2.50;;;12.20;99.90;;;;;;5073470;28;20035;-70
2023/09/24 02:12:03;;;;;;;7.20;2.38;;;12.20;99.90;;;;;;5072859;28;20090;-70
2023/09/24 02:14:28;;;;;;;8.50;2.28;;;12.20;99.90;;;;;;5073096;28;20028;-70
2023/09/24 02:16:55;;;;;;;8.68;2.95;;;12.20;99.90;;;;;;5072744;28;20028;-70
2023/09/24 02:19:24;;;;;;;8.48;2.92;;;12.20;99.90;;;;;;5073296;28;20111;-70
2023/09/24 02:21:50;;;;;;;12.23;2.83;;;12.10;99.90;;;;;;5072837;28;20074;-70
2023/09/24 02:24:15;;;;;;;7.60;2.25;;;12.10;99.90;;;;;;5072876;28;20346;-70
2023/09/24 02:26:42;;;;;;;8.52;2.50;;;12.10;99.90;;;;;;5072794;28;20416;-70
2023/09/24 02:29:07;;;;;;;9.68;2.50;;;12.10;99.90;;;;;;5073279;28;20021;-70
2023/09/24 02:31:33;;;;;;;7.72;2.50;;;12.10;99.90;;;;;;5072604;28;20021;-70
2023/09/24 02:33:59;;;;;;;9.32;2.58;;;12.10;99.90;;;;;;5074767;28;20106;-70
2023/09/24 02:36:24;;;;;;;8.80;2.40;;;12.10;99.90;;;;;;5074094;28;21627;-71
2023/09/24 02:38:50;;;;;;;7.88;2.25;;;12.10;99.90;;;;;;5073060;28;20029;-71
2023/09/24 02:41:17;;;;;;;8.18;2.38;;;12.20;99.90;;;;;;5072270;28;20024;-71
2023/09/24 02:43:43;;;;;;;7.28;2.47;;;12.20;99.90;;;;;;5072724;28;20017;-71
2023/09/24 02:46:09;;;;;;;7.32;2.55;;;12.20;99.90;;;;;;5069019;28;20039;-71
2023/09/24 02:48:36;;;;;;;9.25;2.55;;;12.20;99.90;;;;;;5072790;28;20025;-70
2023/09/24 02:51:08;;;;;;;9.00;2.63;;;12.20;99.90;;;;;;5071852;28;20024;-71
2023/09/24 02:53:38;;;;;;;6.70;2.47;;;12.20;99.90;;;;;;5072241;28;20032;-71
2023/09/24 02:56:04;;;;;;;5.43;2.22;;;12.20;99.90;;;;;;5066893;28;20029;-70
2023/09/24 02:58:30;;;;;;;5.75;2.38;;;12.10;99.90;;;;;;5066376;28;20427;-70
2023/09/24 03:00:57;;;;;;;7.35;2.63;;;12.10;99.90;;;;;;5071835;28;20387;-70
2023/09/24 03:03:23;;;;;;;6.47;2.33;;;12.10;99.90;;;;;;5072205;28;20127;-70
2023/09/24 03:05:48;;;;;;;8.35;2.55;;;12.10;99.90;;;;;;5071699;28;20127;-70
2023/09/24 03:08:15;;;;;;;7.93;2.50;;;12.10;99.90;;;;;;5072196;28;20032;-70
2023/09/24 03:10:41;;;;;;;10.35;2.80;;;12.10;99.90;;;;;;5071567;28;20032;-70
2023/09/24 03:13:07;;;;;;;6.90;2.45;;;12.00;99.90;;;;;;5071604;28;20122;-70
2023/09/24 03:15:33;;;;;;;8.82;2.88;;;12.00;99.90;;;;;;5071935;28;20021;-70
2023/09/24 03:18:02;;;;;;;10.85;3.03;;;12.00;99.90;;;;;;5071911;28;20556;-71
2023/09/24 03:20:28;;;;;;;8.05;2.92;;;12.00;99.90;;;;;;5071996;28;20021;-71
2023/09/24 03:23:08;;;;;;;7.43;2.55;;;12.00;99.90;;;;;;5071935;28;20017;-71
2023/09/24 03:25:34;;;;;;;6.88;2.63;;;12.00;99.90;;;;;;5071757;28;20074;-71
2023/09/24 03:28:03;;;;;;;6.38;3.10;;;12.00;99.90;;;;;;5071242;28;20430;-71
2023/09/24 03:30:29;;;;;;;8.88;2.70;;;12.00;99.90;;;;;;5072241;28;20036;-71
2023/09/24 03:32:55;;;;;;;16.02;3.22;;;12.00;99.90;;;;;;5071403;28;20118;-71
2023/09/24 03:35:24;;;;;;;13.40;3.15;;;12.00;99.90;;;;;;5071666;28;20034;-71
2023/09/24 03:37:50;;;;;;;8.48;3.13;;;12.00;99.90;;;;;;5071118;28;20391;-70
2023/09/24 03:40:24;;;;;;;11.88;3.40;;;12.00;99.90;;;;;;5071447;28;20036;-70
2023/09/24 03:42:50;;;;;;;10.25;3.40;;;12.00;99.90;;;;;;5071352;28;20021;-71
2023/09/24 03:45:18;;;;;;;8.60;3.08;;;11.90;99.90;;;;;;5071255;28;20029;-71
2023/09/24 03:47:47;;;;;;;10.90;3.40;;;12.00;99.90;;;;;;5086806;28;20016;-70
2023/09/24 03:50:16;;;;;;;15.15;4.18;;;12.00;99.90;;;;;;5071348;28;20032;-70
2023/09/24 03:52:43;;;;;;;10.18;3.45;;;12.00;99.90;;;;;;5070888;28;20021;-70
2023/09/24 03:55:08;;;;;;;11.63;4.43;;;12.00;99.90;;;;;;5071290;28;20141;-70
2023/09/24 03:57:35;;;;;;;13.00;4.10;;;12.00;99.90;;;;;;5070975;28;20127;-70
2023/09/24 04:00:00;;;;;;;17.65;5.00;;;12.10;99.90;;;;;;5071572;28;20040;-71
2023/09/24 04:02:26;;;;;;;13.15;4.47;;;12.10;99.90;;;;;;5069569;28;20024;-70
2023/09/24 04:04:53;;;;;;;18.42;5.40;;;12.10;99.90;;;;;;5070716;28;20037;-71
2023/09/24 04:07:20;;;;;;;11.52;5.20;;;12.10;99.90;;;;;;5070852;28;20060;-70
2023/09/24 04:09:46;;;;;;;16.00;5.47;;;12.10;99.90;;;;;;5070345;28;20051;-70
2023/09/24 04:12:13;;;;;;;14.57;5.55;;;12.10;99.90;;;;;;5070589;28;20052;-70
2023/09/24 04:14:39;;;;;;;14.02;5.70;;;12.20;99.90;;;;;;5070567;28;20028;-70
2023/09/24 04:17:05;;;;;;;14.32;5.55;;;12.20;99.90;;;;;;5068749;28;20044;-71
2023/09/24 04:19:31;;;;;;;13.48;6.35;;;12.20;99.90;;;;;;5069776;28;20332;-70
2023/09/24 04:21:57;;;;;;;16.20;5.93;;;12.20;99.90;;;;;;5069656;28;20032;-70
2023/09/24 04:24:23;;;;;;;11.77;5.63;;;12.20;99.90;;;;;;5070730;28;20025;-70
2023/09/24 04:26:51;;;;;;;12.25;5.80;;;12.20;99.90;;;;;;5070419;28;20020;-70
2023/09/24 04:29:17;;;;;;;14.15;6.18;;;12.10;99.90;;;;;;5070624;28;20025;-70
2023/09/24 04:31:43;;;;;;;15.75;6.18;;;12.10;99.90;;;;;;5070269;28;20317;-70
2023/09/24 04:34:09;;;;;;;16.63;6.55;;;12.10;99.90;;;;;;5070550;28;20036;-70
2023/09/24 04:36:35;;;;;;;13.20;5.90;;;12.10;99.90;;;;;;5066967;28;20020;-70
2023/09/24 04:39:03;;;;;;;14.55;6.47;;;12.10;99.90;;;;;;5070230;28;20023;-70
2023/09/24 04:41:29;;;;;;;16.10;7.22;;;12.10;99.90;;;;;;5070482;28;20051;-71
2023/09/24 04:43:54;;;;;;;16.70;7.00;;;12.10;99.90;;;;;;5070502;28;20020;-70
2023/09/24 04:46:20;;;;;;;15.18;6.90;;;12.10;99.90;;;;;;5070333;28;20025;-70
2023/09/24 04:48:45;;;;;;;14.88;6.57;;;12.10;99.90;;;;;;5070304;28;20051;-71
2023/09/24 04:51:11;;;;;;;13.35;6.53;;;12.00;99.90;;;;;;5069969;28;20043;-70
2023/09/24 04:53:39;;;;;;;16.00;6.40;;;12.00;99.90;;;;;;5070081;28;20460;-70
2023/09/24 04:56:07;;;;;;;12.75;6.68;;;12.00;99.90;;;;;;5064834;28;20016;-71
2023/09/24 04:58:32;;;;;;;13.57;6.70;;;12.00;99.90;;;;;;5064669;28;20260;-70
2023/09/24 05:01:07;;;;;;;14.30;6.53;;;12.00;99.90;;;;;;5070183;28;20024;-71
2023/09/24 05:03:35;;;;;;;;;;;12.00;99.90;;;;;;5070290;28;20044;-70
2023/09/24 05:06:01;;;;;;;10.57;6.05;;;12.00;99.90;;;;;;5070183;28;19924;-71
2023/09/24 05:08:27;;;;;;;15.38;6.40;;;11.90;99.90;;;;;;5069852;28;20577;-71
2023/09/24 05:10:53;;;;;;;16.63;6.30;;;11.90;99.90;;;;;;5070255;28;20024;-70
2023/09/24 05:13:20;;;;;;;17.88;6.55;;;11.90;99.90;;;;;;5070032;28;20021;-71
2023/09/24 05:16:01;;;;;;;13.73;6.60;;;11.90;99.90;;;;;;5070028;28;20024;-71
2023/09/24 05:18:27;;;;;;;14.52;6.13;;;11.90;99.90;;;;;;5069754;28;20450;-70
2023/09/24 05:20:54;;;;;;;12.98;6.18;;;11.90;99.90;;;;;;5069875;28;20025;-70
2023/09/24 05:23:21;;;;;;;15.88;6.97;;;11.80;99.90;;;;;;5069143;28;20559;-70
2023/09/24 05:25:47;;;;;;;17.83;6.82;;;11.80;99.90;;;;;;5072200;28;20091;-71
2023/09/24 05:28:13;;;;;;;17.67;7.28;;;11.80;99.90;;;;;;5070903;28;20107;-71
2023/09/24 05:30:39;;;;;;;18.33;7.30;;;11.90;99.90;;;;;;5069456;28;20028;-71
2023/09/24 05:33:06;;;;;;;15.32;7.28;;;11.90;99.90;;;;;;5070080;28;20248;-71
2023/09/24 05:35:32;;;;;;;14.93;6.85;;;11.90;99.90;;;;;;5074220;28;20024;-71
2023/09/24 05:37:57;;;;;;;16.45;7.57;;;11.90;99.90;;;;;;5073471;28;20033;-71
2023/09/24 05:40:23;;;;;;;15.55;7.85;;;11.90;99.90;;;;;;5073604;28;20404;-71
2023/09/24 05:42:48;;;;;;;15.77;7.43;;;11.90;99.90;;;;;;5065905;28;20024;-71
2023/09/24 05:45:14;;;;;;;17.52;7.47;;;11.90;99.90;;;;;;5074094;28;20066;-71
2023/09/24 05:47:41;;;;;;;16.00;7.07;;;11.90;99.90;;;;;;5088979;28;20439;-71
2023/09/24 05:50:06;;;;;;;16.08;8.15;;;11.90;99.90;;;;;;5073277;28;20021;-71
2023/09/24 05:52:32;;;;;;;19.45;8.05;;;11.90;99.90;;;;;;5073535;28;20024;-70
2023/09/24 05:54:58;;;;;;;15.32;7.72;;;11.90;99.90;;;;;;5073436;28;20036;-71
2023/09/24 05:57:26;;;;;;;17.02;7.90;;;11.90;99.90;;;;;;5062178;28;20012;-70
2023/09/24 05:59:53;;;;;;;16.70;7.63;;;11.90;99.90;;;;;;5073252;28;20017;-71
2023/09/24 06:02:22;;;;;;;18.70;8.40;;;11.90;99.90;;;;;;5073124;28;20408;-71
2023/09/24 06:04:49;;;;;;;21.85;7.05;;;11.90;99.90;;;;;;5073339;28;20144;-70
2023/09/24 06:07:14;;;;;;;17.40;7.82;;;11.90;99.90;;;;;;5073333;28;20044;-70
2023/09/24 06:09:40;;;;;;;15.10;7.38;;;11.90;99.90;;;;;;5073005;28;20276;-70
2023/09/24 06:12:06;;;;;;;19.48;8.45;;;12.00;99.90;;;;;;5073574;28;20032;-71
2023/09/24 06:14:31;;;;;;;16.67;7.05;;;12.00;99.90;;;;;;5071882;28;20547;-70
2023/09/24 06:16:58;;;;;;;21.45;8.18;;;12.00;99.90;;;;;;5067332;28;20032;-71
2023/09/24 06:19:23;;;;;;;18.60;7.50;;;12.00;99.90;;;;;;5072532;28;20100;-71
2023/09/24 06:21:53;;;;;;;16.35;7.85;;;12.00;99.90;;;;;;5061467;28;20449;-71
2023/09/24 06:24:20;;;;;;;17.60;7.30;;;12.00;99.90;;;;;;5070787;28;20521;-71
2023/09/24 06:26:46;;;;;;;14.35;7.55;;;12.00;99.90;;;;;;5073082;28;20016;-71
2023/09/24 06:29:12;;;;;;;16.95;7.40;;;12.00;99.90;;;;;;5072733;28;20020;-71
2023/09/24 06:31:38;;;;;;;16.83;6.75;;;12.10;99.90;;;;;;5068831;28;20364;-71
2023/09/24 06:34:03;;;;;;;22.00;7.57;;;12.10;99.90;;;;;;5069907;28;20071;-71
2023/09/24 06:36:29;;;;;;;14.07;6.47;;;12.10;99.90;;;;;;5072279;28;20062;-71
2023/09/24 06:38:56;;;;;;;13.40;6.05;;;12.10;99.90;;;;;;5072536;28;20403;-71
2023/09/24 06:41:22;;;;;;;13.98;6.70;;;12.10;99.90;;;;;;5072117;28;20025;-71
2023/09/24 06:43:48;;;;;;;15.05;6.00;;;12.10;99.90;;;;;;5071563;28;20050;-71
2023/09/24 06:46:13;;;;;;;15.55;5.93;;;12.20;99.90;;;;;;5068484;28;20400;-71
2023/09/24 06:48:39;;;;;;;14.48;5.75;;;12.20;99.90;;;;;;5071366;28;20020;-71
2023/09/24 06:51:09;;;;;;;18.88;5.63;;;12.20;99.90;;;;;;5071918;28;20066;-71
2023/09/24 06:53:37;;;;;;;12.07;5.40;;;12.20;99.90;;;;;;5070436;28;20028;-71
2023/09/24 06:56:07;;;;;;;9.15;5.00;;;12.20;99.90;;;;;;5068999;28;20403;-71
2023/09/24 06:58:33;;;;;;;9.75;4.90;;;12.30;99.90;;;;;;5070960;28;20067;-71
2023/09/24 07:01:06;;;;;;;12.50;5.07;;;12.30;99.90;;;;;;5069594;28;20020;-71
2023/09/24 07:03:32;;;;;;;16.63;5.18;;;12.30;99.90;;;;;;5067012;28;20067;-70
2023/09/24 07:05:58;;;;;;;10.07;5.05;;;12.30;99.90;;;;;;5071905;28;20056;-71
2023/09/24 07:08:24;;;;;;;12.65;5.10;;;12.30;99.90;;;;;;5071723;28;20031;-71
2023/09/24 07:11:23;;;;;;;13.40;4.88;;;12.40;99.90;;;;;;5071762;28;20108;-71
2023/09/24 07:13:49;;;;;;;12.30;4.75;;;12.50;99.90;;;;;;5072038;28;20017;-70
2023/09/24 07:16:15;;;;;;;11.60;4.70;;;12.50;99.90;;;;;;5071999;28;20218;-70
2023/09/24 07:18:41;;;;;;;14.38;4.90;;;12.50;99.90;;;;;;5071607;28;20542;-70
2023/09/24 07:21:07;;;;;;;11.25;4.60;;;12.60;99.90;;;;;;5071477;28;20024;-70
2023/09/24 07:23:32;;;;;;;9.45;4.35;;;12.60;99.90;;;;;;5071524;28;20098;-70
2023/09/24 07:25:58;;;;;;;11.30;4.55;;;12.70;99.90;;;;;;5071517;28;20028;-70
2023/09/24 07:28:25;;;;;;;14.38;4.65;;;12.70;99.90;;;;;;5071611;28;20017;-70
2023/09/24 07:30:53;;;;;;;13.80;5.25;;;12.80;99.90;;;;;;5071353;28;20028;-70
2023/09/24 07:33:21;;;;;;;9.43;4.40;;;12.80;99.90;;;;;;5071198;28;20387;-71
2023/09/24 07:35:49;;;;;;;7.97;4.18;;;12.90;99.90;;;;;;5071468;28;20046;-70
2023/09/24 07:38:15;;;;;;;12.70;4.50;;;12.90;99.90;;;;;;5071957;28;20028;-70
2023/09/24 07:40:42;;;;;;;10.93;4.22;;;13.00;99.90;;;;;;5069593;28;20486;-70
2023/09/24 07:43:08;;;;;;;7.00;4.07;;;13.00;99.90;;;;;;5069554;28;20098;-70
2023/09/24 07:45:35;;;;;;;11.07;4.30;;;13.10;99.90;;;;;;5069328;28;20531;-70
2023/09/24 07:48:02;;;;;;;10.73;4.43;;;13.20;99.90;;;;;;5070815;28;20016;-70
2023/09/24 07:50:27;;;;;;;8.57;4.30;;;13.20;99.90;;;;;;5071135;28;20074;-70
2023/09/24 07:52:53;;;;;;;18.80;4.60;;;13.30;99.90;;;;;;5071318;28;20488;-69
2023/09/24 07:55:19;;;;;;;13.10;5.38;;;13.40;99.90;;;;;;5072318;28;20387;-70
2023/09/24 07:57:44;;;;;;;14.63;5.00;;;13.50;99.90;;;;;;5070039;28;20024;-69
2023/09/24 08:00:10;;;;;;;11.85;5.15;;;13.50;99.90;;;;;;5061395;28;20059;-69
2023/09/24 08:02:36;;;;;;;12.50;4.45;;;13.60;99.90;;;;;;5070876;28;20048;-69
2023/09/24 08:05:02;;;;;;;11.82;4.93;;;13.70;99.90;;;;;;5070765;28;20080;-69
2023/09/24 08:07:30;;;;;;;12.70;4.50;;;13.80;99.90;;;;;;5069966;28;20047;-68
2023/09/24 08:09:55;;;;;;;12.00;5.00;;;13.90;99.90;;;;;;5081032;28;20016;-69
2023/09/24 08:12:21;;;;;;;13.77;5.15;;;14.00;99.90;;;;;;5071809;28;20040;-69
2023/09/24 08:14:47;;;;;;;11.07;4.63;;;14.10;99.90;;;;;;5067153;28;20021;-68
2023/09/24 08:17:13;;;;;;;12.02;4.78;;;14.20;99.90;;;;;;5067219;28;20024;-69
2023/09/24 08:19:39;;;;;;;9.35;4.03;;;14.30;99.90;;;;;;5071332;28;20024;-68
2023/09/24 08:22:05;;;;;;;14.25;4.53;;;14.40;99.90;;;;;;5071136;28;20021;-68
2023/09/24 08:24:30;;;;;;;13.00;4.47;;;14.50;99.90;;;;;;5067333;28;20111;-68
2023/09/24 08:26:56;;;;;;;11.43;4.03;;;14.70;99.90;;;;;;5070753;28;20024;-68
2023/09/24 08:29:22;;;;;;;8.40;3.53;;;14.80;99.90;;;;;;5070132;28;20054;-69
2023/09/24 08:31:47;;;;;;;8.68;3.65;;;15.00;99.90;;;;;;5070573;28;20039;-69
2023/09/24 08:34:13;;;;;;;10.20;3.40;;;15.10;99.90;;;;;;5068908;28;20063;-69
2023/09/24 08:36:39;;;;;;;13.38;3.80;;;15.20;99.90;;;;;;5070750;28;20063;-70
2023/09/24 08:39:05;;;;;;;12.48;3.80;;;15.30;99.90;;;;;;5070643;28;21467;-69
2023/09/24 08:41:32;;;;;;;7.60;3.38;;;15.40;99.90;;;;;;5070562;28;20040;-68
2023/09/24 08:44:01;;;;;;;11.13;3.58;;;15.50;99.90;;;;;;5070296;28;20090;-68
2023/09/24 08:46:27;;;;;;;10.75;3.92;;;15.70;99.90;;;;;;5070350;28;20023;-70
2023/09/24 08:48:53;;;;;;;9.18;3.22;;;15.80;99.90;;;;;;5070369;28;20024;-69
2023/09/24 08:51:19;;;;;;;8.27;3.60;;;15.90;99.90;;;;;;5068751;28;20070;-68
2023/09/24 08:53:45;;;;;;;8.43;3.50;;;16.00;99.90;;;;;;5069731;28;20036;-69
2023/09/24 08:56:11;;;;;;;9.00;3.47;;;16.20;99.90;;;;;;5070192;28;20020;-69
2023/09/24 08:58:36;;;;;;;11.43;3.40;;;16.20;99.90;;;;;;5065013;28;20472;-70
2023/09/24 09:01:02;;;;;;;6.60;3.03;;;16.40;99.90;;;;;;5070001;28;20064;-70
2023/09/24 09:03:28;;;;;;;9.95;3.17;;;16.60;99.90;;;;;;5064960;28;20025;-69
2023/09/24 09:05:54;;;;;;;9.45;3.40;;;16.70;99.90;;;;;;5070236;28;20173;-69
2023/09/24 09:08:20;;;;;;;6.28;2.80;;;16.70;99.90;;;;;;5069392;28;20020;-69
2023/09/24 09:10:48;;;;;;;8.90;2.92;;;16.80;99.90;;;;;;5070218;28;20024;-69
2023/09/24 09:13:18;;;;;;;7.07;2.95;;;16.90;99.90;;;;;;5069536;28;20024;-69
2023/09/24 09:15:44;;;;;;;5.53;2.10;;;17.00;99.90;;;;;;5069937;28;20017;-70
2023/09/24 09:18:23;;;;;;;8.95;2.40;;;17.00;99.90;;;;;;5068125;28;20016;-69
2023/09/24 09:20:50;;;;;;;7.15;2.42;;;17.10;99.90;;;;;;5068658;28;20100;-69
2023/09/24 09:23:35;;;;;;;8.35;2.50;;;17.20;99.90;;;;;;5069836;28;20082;-69
2023/09/24 09:26:00;;;;;;;8.10;2.40;;;17.30;99.90;;;;;;5067852;28;20391;-68
2023/09/24 09:28:29;;;;;;;69.03;4.85;;;17.40;99.90;;;;;;5069540;28;20025;-68
2023/09/24 09:30:58;;;;;;;7.25;2.22;;;17.50;99.90;;;;;;5069367;28;20031;-68
2023/09/24 09:33:25;;;;;;;19.27;2.35;;;17.70;99.90;;;;;;5060746;28;20039;-68
2023/09/24 09:35:51;;;;;;;7.40;1.88;;;17.80;99.90;;;;;;5069788;28;20025;-69
2023/09/24 09:38:17;;;;;;;8.90;2.15;;;17.90;99.90;;;;;;5069590;28;20100;-68
2023/09/24 09:40:43;;;;;;;6.65;2.10;;;18.00;99.90;;;;;;5069530;28;20435;-72
2023/09/24 09:43:14;;;;;;;7.53;2.25;;;18.00;99.90;;;;;;5064223;28;20052;-70
2023/09/24 09:45:42;;;;;;;6.80;1.75;;;18.10;99.90;;;;;;5068532;28;20024;-70
2023/09/24 09:48:12;;;;;;;10.20;2.15;;;18.30;99.90;;;;;;5069256;28;20537;-69
2023/09/24 09:50:45;;;;;;;5.22;1.92;;;18.30;99.90;;;;;;5069053;28;20033;-70
2023/09/24 09:53:17;;;;;;;7.65;1.73;;;18.30;99.90;;;;;;5069912;28;20476;-71
2023/09/24 09:55:44;;;;;;;4.95;2.17;;;18.30;99.90;;;;;;5070163;28;20028;-70
2023/09/24 09:58:11;;;;;;;7.30;2.25;;;18.40;99.90;;;;;;5057935;28;20025;-71
2023/09/24 10:00:38;;;;;;;7.57;2.25;;;18.50;99.90;;;;;;5066565;28;20037;-70
2023/09/24 10:03:05;;;;;;;8.57;2.33;;;18.70;99.90;;;;;;5069650;28;20028;-71
2023/09/24 10:05:32;;;;;;;8.32;2.10;;;18.90;99.90;;;;;;5069525;28;20036;-70
2023/09/24 10:07:57;;;;;;;7.75;2.17;;;19.00;99.90;;;;;;5069005;28;20032;-71
2023/09/24 10:10:35;;;;;;;7.53;2.28;;;19.10;99.90;;;;;;5066000;28;20031;-71
2023/09/24 10:13:03;;;;;;;4.93;2.00;;;19.20;99.90;;;;;;5068771;28;20028;-71
2023/09/24 10:15:30;;;;;;;8.07;2.47;;;19.40;99.90;;;;;;5068884;28;20421;-71
2023/09/24 10:18:11;;;;;;;7.10;2.20;;;19.50;99.90;;;;;;5069545;28;20511;-71
2023/09/24 10:20:49;;;;;;;11.32;2.50;;;19.50;99.90;;;;;;5063221;28;20252;-71
2023/09/24 10:23:30;;;;;;;6.40;2.40;;;19.60;99.90;;;;;;5070548;28;20032;-71
2023/09/24 10:26:05;;;;;;;4.32;1.80;;;19.60;99.90;;;;;;5074484;28;20021;-71
2023/09/24 10:28:50;;;;;;;5.32;2.42;;;19.70;99.90;;;;;;5075198;28;20021;-71
2023/09/24 10:31:17;;;;;;;7.28;2.00;;;19.80;99.90;;;;;;5073847;28;20052;-71
2023/09/24 10:34:02;;;;;;;5.82;2.10;;;19.80;99.90;;;;;;5073606;28;20013;-71
2023/09/24 10:36:33;;;;;;;7.57;2.00;;;19.80;99.90;;;;;;5071942;28;20025;-71
2023/09/24 10:39:19;;;;;;;7.53;2.05;;;19.90;99.90;;;;;;5073341;28;20025;-71
2023/09/24 10:42:09;;;;;;;7.22;2.42;;;19.90;99.90;;;;;;5069142;28;20078;-71
2023/09/24 10:44:44;;;;;;;6.95;2.10;;;20.00;99.90;;;;;;5066382;28;20150;-71
2023/09/24 10:47:25;;;;;;;7.10;2.05;;;20.00;99.90;;;;;;5067297;28;20021;-71
2023/09/24 10:50:01;;;;;;;6.25;1.88;;;20.10;99.90;;;;;;5070129;28;20017;-70
2023/09/24 10:52:26;;;;;;;6.75;2.00;;;20.10;99.90;;;;;;5073644;28;20036;-71
2023/09/24 10:54:52;;;;;;;10.07;2.15;;;20.20;99.90;;;;;;5072398;28;20024;-70
2023/09/24 10:57:24;;;;;;;7.93;2.20;;;20.30;99.90;;;;;;5070622;28;20043;-70
2023/09/24 10:59:51;;;;;;;6.88;2.10;;;20.40;99.90;;;;;;5062045;28;20024;-70
2023/09/24 11:02:18;;;;;;;7.15;1.90;;;20.40;99.90;;;;;;5070813;28;20066;-72
2023/09/24 11:04:43;;;;;;;5.25;1.80;;;20.40;99.90;;;;;;5071564;28;20044;-71
2023/09/24 11:07:10;;;;;;;4.88;1.70;;;20.50;99.90;;;;;;5070849;28;20031;-71
2023/09/24 11:09:36;;;;;;;4.43;1.75;;;20.50;99.90;;;;;;5087150;28;20029;-71
2023/09/24 11:12:08;;;;;;;4.63;1.73;;;20.50;99.90;;;;;;5064367;28;20028;-71
2023/09/24 11:14:33;;;;;;;5.43;1.73;;;20.50;99.90;;;;;;5072241;28;20056;-71
2023/09/24 11:16:59;;;;;;;3.40;1.50;;;20.50;99.90;;;;;;5070875;28;20444;-71
2023/09/24 11:19:41;;;;;;;4.88;1.55;;;20.50;99.90;;;;;;5070097;28;20020;-71
2023/09/24 11:22:26;;;;;;;4.97;1.58;;;20.50;99.90;;;;;;5068676;28;20028;-72
2023/09/24 11:25:07;;;;;;;6.15;2.00;;;20.50;99.90;;;;;;5072101;28;20558;-71
2023/09/24 11:27:34;;;;;;;4.30;1.58;;;20.60;99.90;;;;;;5064620;28;20020;-71
2023/09/24 11:30:00;;;;;;;4.47;1.85;;;20.70;99.90;;;;;;5071457;28;20024;-71
2023/09/24 11:32:27;;;;;;;6.40;1.60;;;20.70;99.90;;;;;;5071697;28;20020;-72
2023/09/24 11:35:09;;;;;;;4.57;1.70;;;20.80;99.90;;;;;;5072401;28;20024;-71
2023/09/24 11:38:01;;;;;;;5.00;1.73;;;20.90;99.90;;;;;;5069058;28;20178;-71
2023/09/24 11:40:34;;;;;;;4.43;1.77;;;21.00;99.90;;;;;;5070929;28;20143;-71
2023/09/24 11:43:16;;;;;;;4.70;1.58;;;21.00;99.90;;;;;;5082701;28;20028;-71
2023/09/24 11:45:48;;;;;;;7.70;1.65;;;21.00;99.90;;;;;;5067882;28;20031;-71
2023/09/24 11:48:24;;;;;;;5.55;1.90;;;21.00;99.90;;;;;;5072732;28;20021;-71
2023/09/24 11:50:55;;;;;;;5.28;1.60;;;21.00;99.90;;;;;;5068960;28;20027;-70
2023/09/24 11:53:22;;;;;;;7.32;2.00;;;20.90;99.90;;;;;;5072341;28;20063;-70
2023/09/24 11:55:48;;;;;;;4.07;1.52;;;20.90;99.90;;;;;;5072442;28;20020;-71
2023/09/24 11:58:17;;;;;;;5.15;1.80;;;20.90;99.90;;;;;;5072249;28;20028;-70
2023/09/24 12:00:43;;;;;;;5.10;1.80;;;20.80;99.90;;;;;;5072840;28;20020;-70
2023/09/24 12:03:10;;;;;;;6.07;2.03;;;20.80;99.90;;;;;;5072522;28;20020;-70
2023/09/24 12:05:36;;;;;;;4.40;1.73;;;20.80;99.90;;;;;;5071097;28;20219;-71
2023/09/24 12:08:03;;;;;;;8.02;1.90;;;20.90;99.90;;;;;;5071572;28;20573;-69
2023/09/24 12:10:30;;;;;;;5.68;1.85;;;20.90;99.90;;;;;;5071608;28;20074;-70
2023/09/24 12:13:01;;;;;;;6.85;1.85;;;20.90;99.90;;;;;;5071141;28;20108;-70
2023/09/24 12:15:29;;;;;;;6.25;2.10;;;21.00;99.90;;;;;;5069985;28;20040;-70
2023/09/24 12:17:56;;;;;;;4.47;1.60;;;21.10;99.90;;;;;;5063841;28;20089;-71
2023/09/24 12:20:22;;;;;;;3.50;1.75;;;21.20;99.90;;;;;;5070708;28;20131;-70
2023/09/24 12:22:48;;;;;;;5.85;1.73;;;21.20;99.60;;;;;;5072275;28;20096;-72
2023/09/24 12:25:14;;;;;;;8.00;2.10;;;21.20;99.50;;;;;;5071708;28;20096;-71
2023/09/24 12:27:40;;;;;;;4.65;1.80;;;21.20;99.20;;;;;;5071695;28;20028;-71
2023/09/24 12:30:12;;;;;;;5.90;1.92;;;21.20;98.70;;;;;;5071745;28;20029;-71
2023/09/24 12:32:39;;;;;;;5.47;1.63;;;21.20;99.00;;;;;;5087044;28;20040;-71
2023/09/24 12:35:07;;;;;;;4.35;1.80;;;21.20;97.90;;;;;;5071263;28;20021;-72
2023/09/24 12:37:34;;;;;;;7.28;1.85;;;21.20;97.80;;;;;;5082743;28;20040;-72
2023/09/24 12:40:00;;;;;;;4.68;1.58;;;21.10;98.10;;;;;;5071014;28;20115;-71
2023/09/24 12:42:30;;;;;;;7.10;2.03;;;21.10;98.20;;;;;;5064468;28;20082;-72
2023/09/24 12:44:57;;;;;;;4.93;1.80;;;21.10;98.40;;;;;;5068658;28;20078;-72
2023/09/24 12:47:23;;;;;;;8.20;2.03;;;21.10;98.60;;;;;;5069926;28;20044;-71